sensor_id;sensor_type;location;lat;lon;timestamp;temperature;humidity
54796;DHT22;40693;43.884;20.340;2023-06-24T00:01:50;640.70;2432.00
54796;DHT22;40693;43.884;20.340;2023-06-24T00:04:16;640.70;2432.00
54796;DHT22;40693;43.884;20.340;2023-06-24T00:06:46;640.70;2432.00
54796;DHT22;40693;43.884;20.340;2023-06-24T00:09:11;640.80;2432.00
54796;DHT22;40693;43.884;20.340;2023-06-24T00:11:37;640.70;2432.00
54796;DHT22;40693;43.884;20.340;2023-06-24T00:14:03;640.70;2432.00
54796;DHT22;40693;43.884;20.340;2023-06-24T00:16:28;640.70;2432.00
54796;DHT22;40693;43.884;20.340;2023-06-24T00:18:57;640.50;2432.00
54796;DHT22;40693;43.884;20.340;2023-06-24T00:21:24;640.50;2432.00
54796;DHT22;40693;43.884;20.340;2023-06-24T00:23:59;640.30;2432.00
54796;DHT22;40693;43.884;20.340;2023-06-24T00:26:27;640.20;2432.00
54796;DHT22;40693;43.884;20.340;2023-06-24T00:28:53;640.10;2432.00
54796;DHT22;40693;43.884;20.340;2023-06-24T00:31:19;615.30;2432.00
54796;DHT22;40693;43.884;20.340;2023-06-24T00:33:46;615.20;2432.00
54796;DHT22;40693;43.884;20.340;2023-06-24T00:36:11;615.20;2432.00
54796;DHT22;40693;43.884;20.340;2023-06-24T00:38:38;615.10;2432.00
54796;DHT22;40693;43.884;20.340;2023-06-24T00:41:04;615.10;2432.00
54796;DHT22;40693;43.884;20.340;2023-06-24T00:43:30;614.90;2432.00
54796;DHT22;40693;43.884;20.340;2023-06-24T00:45:57;614.80;2432.00
54796;DHT22;40693;43.884;20.340;2023-06-24T00:48:23;614.90;2432.00
54796;DHT22;40693;43.884;20.340;2023-06-24T00:50:50;614.80;2432.00
54796;DHT22;40693;43.884;20.340;2023-06-24T00:53:16;614.80;2432.00
54796;DHT22;40693;43.884;20.340;2023-06-24T00:55:42;614.80;2432.00
54796;DHT22;40693;43.884;20.340;2023-06-24T00:58:09;614.80;2432.00
54796;DHT22;40693;43.884;20.340;2023-06-24T01:00:35;614.80;2432.00
54796;DHT22;40693;43.884;20.340;2023-06-24T01:03:01;614.80;2432.00
54796;DHT22;40693;43.884;20.340;2023-06-24T01:05:28;614.70;2432.00
54796;DHT22;40693;43.884;20.340;2023-06-24T01:08:01;614.70;2432.00
54796;DHT22;40693;43.884;20.340;2023-06-24T01:10:27;615.00;2432.00
54796;DHT22;40693;43.884;20.340;2023-06-24T01:12:53;614.70;2432.00
54796;DHT22;40693;43.884;20.340;2023-06-24T01:15:19;614.70;2432.00
54796;DHT22;40693;43.884;20.340;2023-06-24T01:34:25;614.50;2432.00
54796;DHT22;40693;43.884;20.340;2023-06-24T01:37:08;614.40;2432.00
54796;DHT22;40693;43.884;20.340;2023-06-24T01:39:40;614.50;2432.00
54796;DHT22;40693;43.884;20.340;2023-06-24T01:42:10;614.50;2432.00
54796;DHT22;40693;43.884;20.340;2023-06-24T01:44:38;614.50;2432.00
54796;DHT22;40693;43.884;20.340;2023-06-24T01:47:07;614.50;2432.00
54796;DHT22;40693;43.884;20.340;2023-06-24T01:49:39;614.50;2432.00
54796;DHT22;40693;43.884;20.340;2023-06-24T01:52:07;614.40;2432.00
54796;DHT22;40693;43.884;20.340;2023-06-24T01:54:36;614.40;2432.00
54796;DHT22;40693;43.884;20.340;2023-06-24T01:57:06;589.70;2432.00
54796;DHT22;40693;43.884;20.340;2023-06-24T01:59:34;589.70;2432.00
54796;DHT22;40693;43.884;20.340;2023-06-24T02:02:02;589.70;2432.00
54796;DHT22;40693;43.884;20.340;2023-06-24T02:04:29;614.40;2432.00
54796;DHT22;40693;43.884;20.340;2023-06-24T02:06:59;614.40;2432.00
54796;DHT22;40693;43.884;20.340;2023-06-24T02:09:26;614.40;2432.00
54796;DHT22;40693;43.884;20.340;2023-06-24T02:11:55;614.40;2432.00
54796;DHT22;40693;43.884;20.340;2023-06-24T02:14:22;614.40;2432.00
54796;DHT22;40693;43.884;20.340;2023-06-24T02:16:50;614.40;2432.00
54796;DHT22;40693;43.884;20.340;2023-06-24T02:19:16;614.40;2432.00
54796;DHT22;40693;43.884;20.340;2023-06-24T02:21:44;589.70;2432.00
54796;DHT22;40693;43.884;20.340;2023-06-24T02:24:11;589.70;2432.00
54796;DHT22;40693;43.884;20.340;2023-06-24T02:26:37;589.60;2432.00
54796;DHT22;40693;43.884;20.340;2023-06-24T02:29:08;589.70;2432.00
54796;DHT22;40693;43.884;20.340;2023-06-24T02:31:36;589.70;2432.00
54796;DHT22;40693;43.884;20.340;2023-06-24T02:34:01;614.40;2432.00
54796;DHT22;40693;43.884;20.340;2023-06-24T02:36:27;589.70;2432.00
54796;DHT22;40693;43.884;20.340;2023-06-24T02:38:53;614.40;2432.00
54796;DHT22;40693;43.884;20.340;2023-06-24T02:41:19;614.40;2432.00
54796;DHT22;40693;43.884;20.340;2023-06-24T02:43:44;614.40;2432.00
54796;DHT22;40693;43.884;20.340;2023-06-24T02:46:10;614.40;2432.00
54796;DHT22;40693;43.884;20.340;2023-06-24T02:48:37;614.40;2432.00
54796;DHT22;40693;43.884;20.340;2023-06-24T02:51:04;589.70;2432.00
54796;DHT22;40693;43.884;20.340;2023-06-24T02:53:32;614.40;2432.00
54796;DHT22;40693;43.884;20.340;2023-06-24T02:55:58;614.50;2432.00
54796;DHT22;40693;43.884;20.340;2023-06-24T02:58:24;589.70;2432.00
54796;DHT22;40693;43.884;20.340;2023-06-24T03:01:00;589.70;2432.00
54796;DHT22;40693;43.884;20.340;2023-06-24T03:03:28;589.70;2432.00
54796;DHT22;40693;43.884;20.340;2023-06-24T03:05:55;589.70;2432.00
54796;DHT22;40693;43.884;20.340;2023-06-24T03:08:23;614.40;2432.00
54796;DHT22;40693;43.884;20.340;2023-06-24T03:10:59;614.40;2432.00
54796;DHT22;40693;43.884;20.340;2023-06-24T03:13:25;614.60;2432.00
54796;DHT22;40693;43.884;20.340;2023-06-24T03:15:51;614.60;2432.00
54796;DHT22;40693;43.884;20.340;2023-06-24T03:18:17;614.50;2432.00
54796;DHT22;40693;43.884;20.340;2023-06-24T03:20:43;614.60;2432.00
54796;DHT22;40693;43.884;20.340;2023-06-24T03:23:10;614.60;2432.00
54796;DHT22;40693;43.884;20.340;2023-06-24T03:25:36;614.70;2432.00
54796;DHT22;40693;43.884;20.340;2023-06-24T03:28:02;614.60;2432.00
54796;DHT22;40693;43.884;20.340;2023-06-24T03:30:33;614.60;2432.00
54796;DHT22;40693;43.884;20.340;2023-06-24T03:32:58;614.60;2432.00
54796;DHT22;40693;43.884;20.340;2023-06-24T03:35:24;614.60;2432.00
54796;DHT22;40693;43.884;20.340;2023-06-24T03:37:50;614.60;2432.00
54796;DHT22;40693;43.884;20.340;2023-06-24T03:40:16;614.70;2432.00
54796;DHT22;40693;43.884;20.340;2023-06-24T03:42:42;614.70;2432.00
54796;DHT22;40693;43.884;20.340;2023-06-24T03:45:08;614.70;2432.00
54796;DHT22;40693;43.884;20.340;2023-06-24T03:47:34;614.60;2432.00
54796;DHT22;40693;43.884;20.340;2023-06-24T03:49:59;614.70;2432.00
54796;DHT22;40693;43.884;20.340;2023-06-24T03:52:25;614.60;2432.00
54796;DHT22;40693;43.884;20.340;2023-06-24T03:54:51;614.60;2432.00
54796;DHT22;40693;43.884;20.340;2023-06-24T03:57:17;614.50;2432.00
54796;DHT22;40693;43.884;20.340;2023-06-24T03:59:43;614.60;2432.00
54796;DHT22;40693;43.884;20.340;2023-06-24T04:02:08;614.60;2432.00
54796;DHT22;40693;43.884;20.340;2023-06-24T04:04:35;614.60;2432.00
54796;DHT22;40693;43.884;20.340;2023-06-24T04:07:01;614.70;2432.00
54796;DHT22;40693;43.884;20.340;2023-06-24T04:09:28;614.60;2432.00
54796;DHT22;40693;43.884;20.340;2023-06-24T04:11:54;614.60;2432.00
54796;DHT22;40693;43.884;20.340;2023-06-24T04:14:20;614.50;2432.00
54796;DHT22;40693;43.884;20.340;2023-06-24T04:16:49;614.50;2432.00
54796;DHT22;40693;43.884;20.340;2023-06-24T04:19:15;614.40;2432.00
54796;DHT22;40693;43.884;20.340;2023-06-24T04:21:41;589.60;2432.00
54796;DHT22;40693;43.884;20.340;2023-06-24T04:24:07;589.40;2432.00
54796;DHT22;40693;43.884;20.340;2023-06-24T04:26:33;589.30;2432.00
54796;DHT22;40693;43.884;20.340;2023-06-24T04:28:59;589.40;2432.00
54796;DHT22;40693;43.884;20.340;2023-06-24T04:31:25;589.40;2432.00
54796;DHT22;40693;43.884;20.340;2023-06-24T04:33:51;589.40;2432.00
54796;DHT22;40693;43.884;20.340;2023-06-24T04:36:17;589.50;2432.00
54796;DHT22;40693;43.884;20.340;2023-06-24T04:38:42;589.60;2432.00
54796;DHT22;40693;43.884;20.340;2023-06-24T04:41:08;589.60;2432.00
54796;DHT22;40693;43.884;20.340;2023-06-24T04:43:34;589.50;2432.00
54796;DHT22;40693;43.884;20.340;2023-06-24T04:46:01;589.40;2432.00
54796;DHT22;40693;43.884;20.340;2023-06-24T04:48:27;589.50;2432.00
54796;DHT22;40693;43.884;20.340;2023-06-24T04:50:52;589.60;2432.00
54796;DHT22;40693;43.884;20.340;2023-06-24T04:53:23;589.60;2432.00
54796;DHT22;40693;43.884;20.340;2023-06-24T04:55:49;589.60;2432.00
54796;DHT22;40693;43.884;20.340;2023-06-24T04:58:14;589.70;2432.00
54796;DHT22;40693;43.884;20.340;2023-06-24T05:00:40;589.70;2432.00
54796;DHT22;40693;43.884;20.340;2023-06-24T05:03:06;589.70;2432.00
54796;DHT22;40693;43.884;20.340;2023-06-24T05:05:31;589.70;2432.00
54796;DHT22;40693;43.884;20.340;2023-06-24T05:07:57;614.40;2432.00
54796;DHT22;40693;43.884;20.340;2023-06-24T05:10:23;614.40;2432.00
54796;DHT22;40693;43.884;20.340;2023-06-24T05:12:48;614.60;2432.00
54796;DHT22;40693;43.884;20.340;2023-06-24T05:15:14;614.60;2432.00
54796;DHT22;40693;43.884;20.340;2023-06-24T05:17:40;614.70;2432.00
54796;DHT22;40693;43.884;20.340;2023-06-24T05:20:06;614.80;2432.00
54796;DHT22;40693;43.884;20.340;2023-06-24T05:22:32;614.80;2432.00
54796;DHT22;40693;43.884;20.340;2023-06-24T05:24:58;614.90;2432.00
54796;DHT22;40693;43.884;20.340;2023-06-24T05:27:23;615.00;2432.00
54796;DHT22;40693;43.884;20.340;2023-06-24T05:29:49;615.10;2432.00
54796;DHT22;40693;43.884;20.340;2023-06-24T05:32:15;615.20;2432.00
54796;DHT22;40693;43.884;20.340;2023-06-24T05:34:43;615.20;2432.00
54796;DHT22;40693;43.884;20.340;2023-06-24T05:37:08;615.20;2432.00
54796;DHT22;40693;43.884;20.340;2023-06-24T05:39:34;615.30;2432.00
54796;DHT22;40693;43.884;20.340;2023-06-24T05:42:00;615.30;2432.00
54796;DHT22;40693;43.884;20.340;2023-06-24T05:44:26;615.30;2432.00
54796;DHT22;40693;43.884;20.340;2023-06-24T05:46:51;615.30;2432.00
54796;DHT22;40693;43.884;20.340;2023-06-24T05:49:17;615.30;2432.00
54796;DHT22;40693;43.884;20.340;2023-06-24T05:51:43;615.30;2432.00
54796;DHT22;40693;43.884;20.340;2023-06-24T05:54:09;615.30;2432.00
54796;DHT22;40693;43.884;20.340;2023-06-24T05:56:34;615.30;2432.00
54796;DHT22;40693;43.884;20.340;2023-06-24T05:59:01;640.10;2432.00
54796;DHT22;40693;43.884;20.340;2023-06-24T06:01:27;640.10;2432.00
54796;DHT22;40693;43.884;20.340;2023-06-24T06:03:53;640.20;2432.00
54796;DHT22;40693;43.884;20.340;2023-06-24T06:06:19;640.10;2432.00
54796;DHT22;40693;43.884;20.340;2023-06-24T06:08:44;640.20;2432.00
54796;DHT22;40693;43.884;20.340;2023-06-24T06:11:10;640.20;2432.00
54796;DHT22;40693;43.884;20.340;2023-06-24T06:13:35;640.30;2432.00
54796;DHT22;40693;43.884;20.340;2023-06-24T06:16:01;640.50;2432.00
54796;DHT22;40693;43.884;20.340;2023-06-24T06:18:27;640.70;2432.00
54796;DHT22;40693;43.884;20.340;2023-06-24T06:20:53;640.70;2432.00
54796;DHT22;40693;43.884;20.340;2023-06-24T06:23:18;640.70;2432.00
54796;DHT22;40693;43.884;20.340;2023-06-24T06:25:44;640.80;2432.00
54796;DHT22;40693;43.884;20.340;2023-06-24T06:28:10;665.60;2432.00
54796;DHT22;40693;43.884;20.340;2023-06-24T06:30:35;665.60;2432.00
54796;DHT22;40693;43.884;20.340;2023-06-24T06:33:01;665.60;2432.00
54796;DHT22;40693;43.884;20.340;2023-06-24T06:35:27;665.70;2432.00
54796;DHT22;40693;43.884;20.340;2023-06-24T06:37:52;665.70;2432.00
54796;DHT22;40693;43.884;20.340;2023-06-24T06:40:22;665.70;2432.00
54796;DHT22;40693;43.884;20.340;2023-06-24T06:42:48;665.70;2432.00
54796;DHT22;40693;43.884;20.340;2023-06-24T06:45:14;665.70;2432.00
54796;DHT22;40693;43.884;20.340;2023-06-24T06:47:40;665.70;2432.00
54796;DHT22;40693;43.884;20.340;2023-06-24T06:50:06;665.80;2432.00
54796;DHT22;40693;43.884;20.340;2023-06-24T06:52:33;666.00;2432.00
54796;DHT22;40693;43.884;20.340;2023-06-24T06:54:59;665.80;2432.00
54796;DHT22;40693;43.884;20.340;2023-06-24T06:57:25;665.80;2432.00
54796;DHT22;40693;43.884;20.340;2023-06-24T06:59:51;665.80;2432.00
54796;DHT22;40693;43.884;20.340;2023-06-24T07:02:18;665.70;2432.00
54796;DHT22;40693;43.884;20.340;2023-06-24T07:04:44;665.70;2432.00
54796;DHT22;40693;43.884;20.340;2023-06-24T07:07:10;665.80;2432.00
54796;DHT22;40693;43.884;20.340;2023-06-24T07:09:37;665.70;2432.00
54796;DHT22;40693;43.884;20.340;2023-06-24T07:12:03;665.60;2432.00
54796;DHT22;40693;43.884;20.340;2023-06-24T07:14:29;640.90;2432.00
54796;DHT22;40693;43.884;20.340;2023-06-24T07:16:55;640.70;2432.00
54796;DHT22;40693;43.884;20.340;2023-06-24T07:19:20;640.60;2432.00
54796;DHT22;40693;43.884;20.340;2023-06-24T07:21:46;640.40;2432.00
54796;DHT22;40693;43.884;20.340;2023-06-24T07:24:11;640.30;2432.00
54796;DHT22;40693;43.884;20.340;2023-06-24T07:26:37;640.40;2432.00
54796;DHT22;40693;43.884;20.340;2023-06-24T07:29:06;640.50;2432.00
54796;DHT22;40693;43.884;20.340;2023-06-24T07:31:32;640.30;2432.00
54796;DHT22;40693;43.884;20.340;2023-06-24T07:33:57;640.30;2432.00
54796;DHT22;40693;43.884;20.340;2023-06-24T07:36:23;640.30;2432.00
54796;DHT22;40693;43.884;20.340;2023-06-24T07:38:49;640.40;2432.00
54796;DHT22;40693;43.884;20.340;2023-06-24T07:41:14;640.50;2432.00
54796;DHT22;40693;43.884;20.340;2023-06-24T07:43:40;640.50;2432.00
54796;DHT22;40693;43.884;20.340;2023-06-24T07:46:06;640.60;2432.00
54796;DHT22;40693;43.884;20.340;2023-06-24T07:48:31;640.50;2432.00
54796;DHT22;40693;43.884;20.340;2023-06-24T07:50:57;640.60;2432.00
54796;DHT22;40693;43.884;20.340;2023-06-24T07:53:23;640.50;2432.00
54796;DHT22;40693;43.884;20.340;2023-06-24T07:55:49;640.50;2432.00
54796;DHT22;40693;43.884;20.340;2023-06-24T07:58:15;640.60;2432.00
54796;DHT22;40693;43.884;20.340;2023-06-24T08:00:40;640.60;2432.00
54796;DHT22;40693;43.884;20.340;2023-06-24T08:03:06;640.60;2432.00
54796;DHT22;40693;43.884;20.340;2023-06-24T08:05:32;640.60;2432.00
54796;DHT22;40693;43.884;20.340;2023-06-24T08:07:57;640.50;2432.00
54796;DHT22;40693;43.884;20.340;2023-06-24T08:10:23;640.40;2432.00
54796;DHT22;40693;43.884;20.340;2023-06-24T08:12:49;640.50;2432.00
54796;DHT22;40693;43.884;20.340;2023-06-24T08:15:14;640.60;2432.00
54796;DHT22;40693;43.884;20.340;2023-06-24T08:17:40;640.60;2432.00
54796;DHT22;40693;43.884;20.340;2023-06-24T08:20:06;640.60;2432.00
54796;DHT22;40693;43.884;20.340;2023-06-24T08:22:32;640.50;2432.00
54796;DHT22;40693;43.884;20.340;2023-06-24T08:24:58;640.50;2432.00
54796;DHT22;40693;43.884;20.340;2023-06-24T08:27:24;640.30;2432.00
54796;DHT22;40693;43.884;20.340;2023-06-24T08:29:51;640.20;2432.00
54796;DHT22;40693;43.884;20.340;2023-06-24T08:32:16;640.20;2432.00
54796;DHT22;40693;43.884;20.340;2023-06-24T08:34:42;640.20;2432.00
54796;DHT22;40693;43.884;20.340;2023-06-24T08:37:08;640.10;2432.00
54796;DHT22;40693;43.884;20.340;2023-06-24T08:39:33;640.00;2432.00
54796;DHT22;40693;43.884;20.340;2023-06-24T08:41:59;640.00;2432.00
54796;DHT22;40693;43.884;20.340;2023-06-24T08:44:25;640.00;2432.00
54796;DHT22;40693;43.884;20.340;2023-06-24T08:46:51;640.00;2432.00
54796;DHT22;40693;43.884;20.340;2023-06-24T08:52:03;615.00;2432.00
54796;DHT22;40693;43.884;20.340;2023-06-24T08:54:35;614.90;2432.00
54796;DHT22;40693;43.884;20.340;2023-06-24T08:57:02;614.80;2432.00
54796;DHT22;40693;43.884;20.340;2023-06-24T08:59:31;614.80;2432.00
54796;DHT22;40693;43.884;20.340;2023-06-24T09:01:57;614.80;2432.00
54796;DHT22;40693;43.884;20.340;2023-06-24T09:04:23;614.80;2432.00
54796;DHT22;40693;43.884;20.340;2023-06-24T09:06:48;614.90;2432.00
54796;DHT22;40693;43.884;20.340;2023-06-24T09:09:23;614.90;2432.00
54796;DHT22;40693;43.884;20.340;2023-06-24T09:12:00;614.90;2432.00
54796;DHT22;40693;43.884;20.340;2023-06-24T09:14:28;615.00;2432.00
54796;DHT22;40693;43.884;20.340;2023-06-24T09:16:59;615.00;2432.00
54796;DHT22;40693;43.884;20.340;2023-06-24T09:19:31;615.00;2432.00
54796;DHT22;40693;43.884;20.340;2023-06-24T09:22:10;614.80;2432.00
54796;DHT22;40693;43.884;20.340;2023-06-24T09:24:42;614.90;2432.00
54796;DHT22;40693;43.884;20.340;2023-06-24T09:27:08;614.80;2432.00
54796;DHT22;40693;43.884;20.340;2023-06-24T09:29:34;614.90;2432.00
54796;DHT22;40693;43.884;20.340;2023-06-24T09:32:04;614.90;2432.00
54796;DHT22;40693;43.884;20.340;2023-06-24T09:34:31;614.90;2432.00
54796;DHT22;40693;43.884;20.340;2023-06-24T09:36:58;614.90;2432.00
54796;DHT22;40693;43.884;20.340;2023-06-24T09:39:25;614.90;2432.00
54796;DHT22;40693;43.884;20.340;2023-06-24T09:42:01;614.90;2432.00
54796;DHT22;40693;43.884;20.340;2023-06-24T09:44:28;615.00;2432.00
54796;DHT22;40693;43.884;20.340;2023-06-24T09:46:54;615.00;2432.00
54796;DHT22;40693;43.884;20.340;2023-06-24T09:49:23;614.90;2432.00
54796;DHT22;40693;43.884;20.340;2023-06-24T09:51:53;614.90;2432.00
54796;DHT22;40693;43.884;20.340;2023-06-24T09:54:20;615.00;2432.00
54796;DHT22;40693;43.884;20.340;2023-06-24T09:56:49;615.00;2432.00
54796;DHT22;40693;43.884;20.340;2023-06-24T09:59:15;615.00;2432.00
54796;DHT22;40693;43.884;20.340;2023-06-24T10:01:44;614.90;2432.00
54796;DHT22;40693;43.884;20.340;2023-06-24T10:04:16;615.00;2432.00
54796;DHT22;40693;43.884;20.340;2023-06-24T10:06:42;615.00;2432.00
54796;DHT22;40693;43.884;20.340;2023-06-24T10:09:08;615.10;2432.00
54796;DHT22;40693;43.884;20.340;2023-06-24T10:11:34;614.90;2432.00
54796;DHT22;40693;43.884;20.340;2023-06-24T10:14:00;614.90;2432.00
54796;DHT22;40693;43.884;20.340;2023-06-24T10:16:26;615.00;2432.00
54796;DHT22;40693;43.884;20.340;2023-06-24T10:18:51;614.60;2432.00
54796;DHT22;40693;43.884;20.340;2023-06-24T10:21:17;614.60;2432.00
54796;DHT22;40693;43.884;20.340;2023-06-24T10:23:52;614.60;2432.00
54796;DHT22;40693;43.884;20.340;2023-06-24T10:26:31;614.40;2432.00
54796;DHT22;40693;43.884;20.340;2023-06-24T10:39:58;614.50;2432.00
54796;DHT22;40693;43.884;20.340;2023-06-24T10:45:17;614.70;2432.00
54796;DHT22;40693;43.884;20.340;2023-06-24T10:47:49;614.70;2432.00
54796;DHT22;40693;43.884;20.340;2023-06-24T10:50:21;614.80;2432.00
54796;DHT22;40693;43.884;20.340;2023-06-24T10:52:50;614.70;2432.00
54796;DHT22;40693;43.884;20.340;2023-06-24T10:55:19;614.80;2432.00
54796;DHT22;40693;43.884;20.340;2023-06-24T10:57:45;614.80;2432.00
54796;DHT22;40693;43.884;20.340;2023-06-24T11:00:12;614.80;2432.00
54796;DHT22;40693;43.884;20.340;2023-06-24T11:02:38;614.60;2432.00
54796;DHT22;40693;43.884;20.340;2023-06-24T11:05:04;614.60;2432.00
54796;DHT22;40693;43.884;20.340;2023-06-24T11:07:32;614.60;2432.00
54796;DHT22;40693;43.884;20.340;2023-06-24T11:10:11;614.60;2432.00
54796;DHT22;40693;43.884;20.340;2023-06-24T11:12:39;614.70;2432.00
54796;DHT22;40693;43.884;20.340;2023-06-24T11:15:07;614.70;2432.00
54796;DHT22;40693;43.884;20.340;2023-06-24T11:17:34;614.70;2432.00
54796;DHT22;40693;43.884;20.340;2023-06-24T11:20:01;614.60;2432.00
54796;DHT22;40693;43.884;20.340;2023-06-24T11:22:28;614.60;2432.00
54796;DHT22;40693;43.884;20.340;2023-06-24T11:24:54;614.60;2432.00
54796;DHT22;40693;43.884;20.340;2023-06-24T11:27:25;614.60;2432.00
54796;DHT22;40693;43.884;20.340;2023-06-24T11:29:52;614.70;2432.00
54796;DHT22;40693;43.884;20.340;2023-06-24T11:32:19;614.70;2432.00
54796;DHT22;40693;43.884;20.340;2023-06-24T11:34:46;614.70;2432.00
54796;DHT22;40693;43.884;20.340;2023-06-24T11:37:12;614.80;2432.00
54796;DHT22;40693;43.884;20.340;2023-06-24T11:39:38;614.80;2432.00
54796;DHT22;40693;43.884;20.340;2023-06-24T11:42:07;614.80;2432.00
54796;DHT22;40693;43.884;20.340;2023-06-24T11:44:41;614.70;2432.00
54796;DHT22;40693;43.884;20.340;2023-06-24T11:47:09;614.80;2432.00
54796;DHT22;40693;43.884;20.340;2023-06-24T11:49:55;614.90;2432.00
54796;DHT22;40693;43.884;20.340;2023-06-24T11:52:42;614.80;2432.00
54796;DHT22;40693;43.884;20.340;2023-06-24T11:55:27;614.80;2432.00
54796;DHT22;40693;43.884;20.340;2023-06-24T11:57:57;614.80;2432.00
54796;DHT22;40693;43.884;20.340;2023-06-24T12:02:53;615.00;2432.00
54796;DHT22;40693;43.884;20.340;2023-06-24T12:05:32;615.10;2432.00
54796;DHT22;40693;43.884;20.340;2023-06-24T12:08:04;615.00;2432.00
54796;DHT22;40693;43.884;20.340;2023-06-24T12:10:30;615.00;2432.00
54796;DHT22;40693;43.884;20.340;2023-06-24T12:12:59;615.00;2432.00
54796;DHT22;40693;43.884;20.340;2023-06-24T12:15:26;615.00;2432.00
54796;DHT22;40693;43.884;20.340;2023-06-24T12:17:51;615.10;2432.00
54796;DHT22;40693;43.884;20.340;2023-06-24T12:20:17;615.20;2432.00
54796;DHT22;40693;43.884;20.340;2023-06-24T12:22:44;615.00;2432.00
54796;DHT22;40693;43.884;20.340;2023-06-24T12:25:11;615.20;2432.00
54796;DHT22;40693;43.884;20.340;2023-06-24T12:27:37;615.30;2432.00
54796;DHT22;40693;43.884;20.340;2023-06-24T12:30:04;615.10;2432.00
54796;DHT22;40693;43.884;20.340;2023-06-24T12:32:30;615.10;2432.00
54796;DHT22;40693;43.884;20.340;2023-06-24T12:34:55;615.00;2432.00
54796;DHT22;40693;43.884;20.340;2023-06-24T12:37:22;615.00;2432.00
54796;DHT22;40693;43.884;20.340;2023-06-24T12:39:48;615.00;2432.00
54796;DHT22;40693;43.884;20.340;2023-06-24T12:42:13;614.90;2432.00
54796;DHT22;40693;43.884;20.340;2023-06-24T12:44:39;615.10;2432.00
54796;DHT22;40693;43.884;20.340;2023-06-24T12:47:05;615.20;2432.00
54796;DHT22;40693;43.884;20.340;2023-06-24T12:49:30;615.20;2432.00
54796;DHT22;40693;43.884;20.340;2023-06-24T12:51:56;615.20;2432.00
54796;DHT22;40693;43.884;20.340;2023-06-24T12:54:22;615.20;2432.00
54796;DHT22;40693;43.884;20.340;2023-06-24T12:56:47;615.30;2432.00
54796;DHT22;40693;43.884;20.340;2023-06-24T12:59:13;640.00;2432.00
54796;DHT22;40693;43.884;20.340;2023-06-24T13:01:39;640.00;2432.00
54796;DHT22;40693;43.884;20.340;2023-06-24T13:04:05;640.00;2432.00
54796;DHT22;40693;43.884;20.340;2023-06-24T13:06:30;640.10;2432.00
54796;DHT22;40693;43.884;20.340;2023-06-24T13:08:56;640.10;2432.00
54796;DHT22;40693;43.884;20.340;2023-06-24T13:11:22;640.20;2432.00
54796;DHT22;40693;43.884;20.340;2023-06-24T13:13:47;640.20;2432.00
54796;DHT22;40693;43.884;20.340;2023-06-24T13:16:13;640.20;2432.00
54796;DHT22;40693;43.884;20.340;2023-06-24T13:18:39;640.20;2432.00
54796;DHT22;40693;43.884;20.340;2023-06-24T13:21:04;640.20;2432.00
54796;DHT22;40693;43.884;20.340;2023-06-24T13:23:30;640.00;2432.00
54796;DHT22;40693;43.884;20.340;2023-06-24T13:25:56;615.30;2432.00
54796;DHT22;40693;43.884;20.340;2023-06-24T13:28:22;615.30;2432.00
54796;DHT22;40693;43.884;20.340;2023-06-24T13:30:48;615.30;2432.00
54796;DHT22;40693;43.884;20.340;2023-06-24T13:33:14;615.30;2432.00
54796;DHT22;40693;43.884;20.340;2023-06-24T13:35:40;640.00;2432.00
54796;DHT22;40693;43.884;20.340;2023-06-24T13:38:06;640.10;2432.00
54796;DHT22;40693;43.884;20.340;2023-06-24T13:40:33;640.00;2432.00
54796;DHT22;40693;43.884;20.340;2023-06-24T13:42:59;640.10;2432.00
54796;DHT22;40693;43.884;20.340;2023-06-24T13:45:25;640.10;2432.00
54796;DHT22;40693;43.884;20.340;2023-06-24T13:47:51;640.20;2432.00
54796;DHT22;40693;43.884;20.340;2023-06-24T13:50:16;640.30;2432.00
54796;DHT22;40693;43.884;20.340;2023-06-24T13:52:42;640.20;2432.00
54796;DHT22;40693;43.884;20.340;2023-06-24T13:55:08;640.20;2432.00
54796;DHT22;40693;43.884;20.340;2023-06-24T13:57:34;640.20;2432.00
54796;DHT22;40693;43.884;20.340;2023-06-24T13:59:59;640.50;2432.00
54796;DHT22;40693;43.884;20.340;2023-06-24T14:02:25;640.60;2432.00
54796;DHT22;40693;43.884;20.340;2023-06-24T14:04:51;640.80;2432.00
54796;DHT22;40693;43.884;20.340;2023-06-24T14:07:16;640.90;2432.00
54796;DHT22;40693;43.884;20.340;2023-06-24T14:09:42;640.90;2432.00
54796;DHT22;40693;43.884;20.340;2023-06-24T14:12:08;665.70;2432.00
54796;DHT22;40693;43.884;20.340;2023-06-24T14:14:35;665.60;2432.00
54796;DHT22;40693;43.884;20.340;2023-06-24T14:17:06;665.70;2432.00
54796;DHT22;40693;43.884;20.340;2023-06-24T14:19:34;665.80;2432.00
54796;DHT22;40693;43.884;20.340;2023-06-24T14:22:01;666.00;2432.00
54796;DHT22;40693;43.884;20.340;2023-06-24T14:24:26;666.10;2432.00
54796;DHT22;40693;43.884;20.340;2023-06-24T14:26:52;666.40;2432.00
54796;DHT22;40693;43.884;20.340;2023-06-24T14:29:18;666.50;2432.00
54796;DHT22;40693;43.884;20.340;2023-06-24T14:31:44;691.20;2432.00
54796;DHT22;40693;43.884;20.340;2023-06-24T14:34:09;691.40;2432.00
54796;DHT22;40693;43.884;20.340;2023-06-24T14:36:35;691.60;2432.00
54796;DHT22;40693;43.884;20.340;2023-06-24T14:39:01;691.70;2432.00
54796;DHT22;40693;43.884;20.340;2023-06-24T14:41:26;691.90;2432.00
54796;DHT22;40693;43.884;20.340;2023-06-24T14:43:52;692.00;2432.00
54796;DHT22;40693;43.884;20.340;2023-06-24T14:46:18;692.00;2432.00
54796;DHT22;40693;43.884;20.340;2023-06-24T14:48:43;692.10;2432.00
54796;DHT22;40693;43.884;20.340;2023-06-24T14:51:09;692.00;2432.00
54796;DHT22;40693;43.884;20.340;2023-06-24T14:53:35;691.90;2432.00
54796;DHT22;40693;43.884;20.340;2023-06-24T14:56:01;692.00;2432.00
54796;DHT22;40693;43.884;20.340;2023-06-24T14:58:26;692.00;2432.00
54796;DHT22;40693;43.884;20.340;2023-06-24T15:00:52;691.90;2432.00
54796;DHT22;40693;43.884;20.340;2023-06-24T15:03:18;691.90;2432.00
54796;DHT22;40693;43.884;20.340;2023-06-24T15:05:43;691.90;2432.00
54796;DHT22;40693;43.884;20.340;2023-06-24T15:08:09;691.90;2432.00
54796;DHT22;40693;43.884;20.340;2023-06-24T15:10:35;691.90;2432.00